sensor_id;sensor_type;location;lat;lon;timestamp;P1;durP1;ratioP1;P2;durP2;ratioP2
73695;SDS011;62000;42.262;12.210;2022-07-25T08:30:10;9.73;;;6.05;;
73695;SDS011;62000;42.262;12.210;2022-07-25T08:32:48;12.52;;;6.15;;
73695;SDS011;62000;42.262;12.210;2022-07-25T08:35:27;12.48;;;6.30;;
73695;SDS011;62000;42.262;12.210;2022-07-25T08:37:54;13.32;;;6.63;;
73695;SDS011;62000;42.262;12.210;2022-07-25T08:40:22;11.02;;;6.03;;
73695;SDS011;62000;42.262;12.210;2022-07-25T08:42:50;15.70;;;6.45;;
73695;SDS011;62000;42.262;12.210;2022-07-25T08:45:19;10.98;;;5.68;;
73695;SDS011;62000;42.262;12.210;2022-07-25T08:47:46;14.02;;;6.30;;
73695;SDS011;62000;42.262;12.210;2022-07-25T08:50:18;13.10;;;6.07;;
73695;SDS011;62000;42.262;12.210;2022-07-25T08:52:47;13.63;;;6.43;;
73695;SDS011;62000;42.262;12.210;2022-07-25T08:55:15;15.20;;;7.07;;
73695;SDS011;62000;42.262;12.210;2022-07-25T08:57:47;17.73;;;6.97;;
73695;SDS011;62000;42.262;12.210;2022-07-25T09:00:16;13.52;;;6.45;;
73695;SDS011;62000;42.262;12.210;2022-07-25T09:02:53;13.57;;;6.07;;
73695;SDS011;62000;42.262;12.210;2022-07-25T09:05:28;11.25;;;6.78;;
73695;SDS011;62000;42.262;12.210;2022-07-25T09:07:56;12.30;;;6.00;;
73695;SDS011;62000;42.262;12.210;2022-07-25T09:10:38;12.75;;;5.78;;
73695;SDS011;62000;42.262;12.210;2022-07-25T09:13:10;9.85;;;5.85;;
73695;SDS011;62000;42.262;12.210;2022-07-25T09:15:50;12.48;;;6.28;;
73695;SDS011;62000;42.262;12.210;2022-07-25T09:18:24;10.98;;;6.18;;
73695;SDS011;62000;42.262;12.210;2022-07-25T09:20:52;14.27;;;6.18;;
73695;SDS011;62000;42.262;12.210;2022-07-25T09:28:43;17.40;;;6.15;;
73695;SDS011;62000;42.262;12.210;2022-07-25T09:31:11;19.48;;;5.75;;
73695;SDS011;62000;42.262;12.210;2022-07-25T09:38:53;12.35;;;4.50;;
73695;SDS011;62000;42.262;12.210;2022-07-25T09:41:34;11.07;;;5.57;;
73695;SDS011;62000;42.262;12.210;2022-07-25T09:44:13;9.57;;;6.15;;
73695;SDS011;62000;42.262;12.210;2022-07-25T09:46:47;10.45;;;5.78;;
73695;SDS011;62000;42.262;12.210;2022-07-25T09:49:13;11.52;;;5.45;;
73695;SDS011;62000;42.262;12.210;2022-07-25T09:51:40;8.50;;;4.60;;
73695;SDS011;62000;42.262;12.210;2022-07-25T09:54:06;8.93;;;5.15;;
73695;SDS011;62000;42.262;12.210;2022-07-25T09:56:33;10.15;;;5.70;;
73695;SDS011;62000;42.262;12.210;2022-07-25T09:59:00;9.77;;;5.63;;
73695;SDS011;62000;42.262;12.210;2022-07-25T10:01:32;11.75;;;5.22;;
73695;SDS011;62000;42.262;12.210;2022-07-25T10:04:13;9.15;;;5.85;;
73695;SDS011;62000;42.262;12.210;2022-07-25T10:09:28;11.10;;;5.05;;
73695;SDS011;62000;42.262;12.210;2022-07-25T10:12:02;16.08;;;5.40;;
73695;SDS011;62000;42.262;12.210;2022-07-25T10:14:33;11.65;;;5.68;;
73695;SDS011;62000;42.262;12.210;2022-07-25T10:17:03;9.75;;;6.03;;
73695;SDS011;62000;42.262;12.210;2022-07-25T10:19:41;16.15;;;5.40;;
73695;SDS011;62000;42.262;12.210;2022-07-25T10:22:11;8.07;;;4.63;;
73695;SDS011;62000;42.262;12.210;2022-07-25T10:24:42;9.50;;;5.22;;
73695;SDS011;62000;42.262;12.210;2022-07-25T10:27:13;9.93;;;5.30;;
73695;SDS011;62000;42.262;12.210;2022-07-25T10:29:52;8.93;;;5.07;;
73695;SDS011;62000;42.262;12.210;2022-07-25T10:32:24;9.32;;;5.47;;
73695;SDS011;62000;42.262;12.210;2022-07-25T10:34:57;10.13;;;6.20;;
73695;SDS011;62000;42.262;12.210;2022-07-25T10:37:27;13.68;;;5.57;;
73695;SDS011;62000;42.262;12.210;2022-07-25T10:39:56;11.43;;;4.93;;
73695;SDS011;62000;42.262;12.210;2022-07-25T10:42:22;10.82;;;5.32;;
73695;SDS011;62000;42.262;12.210;2022-07-25T10:44:54;10.10;;;4.97;;
73695;SDS011;62000;42.262;12.210;2022-07-25T10:47:23;8.52;;;5.18;;
73695;SDS011;62000;42.262;12.210;2022-07-25T10:49:56;9.00;;;4.65;;
73695;SDS011;62000;42.262;12.210;2022-07-25T10:52:28;9.77;;;5.43;;
73695;SDS011;62000;42.262;12.210;2022-07-25T10:54:59;7.25;;;4.65;;
73695;SDS011;62000;42.262;12.210;2022-07-25T10:59:53;8.43;;;5.22;;
73695;SDS011;62000;42.262;12.210;2022-07-25T11:49:31;11.48;;;5.70;;
73695;SDS011;62000;42.262;12.210;2022-07-25T11:52:24;8.82;;;5.90;;
73695;SDS011;62000;42.262;12.210;2022-07-25T11:57:24;11.50;;;5.70;;
73695;SDS011;62000;42.262;12.210;2022-07-25T11:59:54;11.43;;;6.03;;
73695;SDS011;62000;42.262;12.210;2022-07-25T12:02:25;10.18;;;5.72;;
73695;SDS011;62000;42.262;12.210;2022-07-25T12:04:58;8.95;;;5.90;;
73695;SDS011;62000;42.262;12.210;2022-07-25T12:07:35;9.88;;;5.93;;
73695;SDS011;62000;42.262;12.210;2022-07-25T12:10:02;8.50;;;4.95;;
73695;SDS011;62000;42.262;12.210;2022-07-25T12:12:39;8.40;;;5.97;;
73695;SDS011;62000;42.262;12.210;2022-07-25T12:15:09;11.27;;;6.07;;
73695;SDS011;62000;42.262;12.210;2022-07-25T12:17:50;9.98;;;5.75;;
73695;SDS011;62000;42.262;12.210;2022-07-25T12:20:18;9.68;;;5.63;;
73695;SDS011;62000;42.262;12.210;2022-07-25T12:22:52;8.88;;;6.07;;
73695;SDS011;62000;42.262;12.210;2022-07-25T12:25:20;9.48;;;6.50;;
73695;SDS011;62000;42.262;12.210;2022-07-25T12:27:49;7.85;;;5.30;;
73695;SDS011;62000;42.262;12.210;2022-07-25T12:30:16;11.40;;;5.32;;
73695;SDS011;62000;42.262;12.210;2022-07-25T12:32:43;9.30;;;5.40;;
73695;SDS011;62000;42.262;12.210;2022-07-25T12:35:11;11.40;;;5.47;;
73695;SDS011;62000;42.262;12.210;2022-07-25T12:37:39;7.70;;;5.38;;
73695;SDS011;62000;42.262;12.210;2022-07-25T12:40:06;9.35;;;5.47;;
73695;SDS011;62000;42.262;12.210;2022-07-25T12:42:35;10.88;;;5.47;;
73695;SDS011;62000;42.262;12.210;2022-07-25T12:45:02;9.07;;;5.25;;
73695;SDS011;62000;42.262;12.210;2022-07-25T12:47:34;8.57;;;5.18;;
73695;SDS011;62000;42.262;12.210;2022-07-25T12:50:04;9.48;;;5.45;;
73695;SDS011;62000;42.262;12.210;2022-07-25T12:52:32;12.00;;;5.45;;
73695;SDS011;62000;42.262;12.210;2022-07-25T12:55:02;8.27;;;4.90;;
73695;SDS011;62000;42.262;12.210;2022-07-25T12:57:37;9.40;;;4.80;;
73695;SDS011;62000;42.262;12.210;2022-07-25T13:00:04;8.20;;;5.03;;
73695;SDS011;62000;42.262;12.210;2022-07-25T13:02:32;10.93;;;5.70;;
73695;SDS011;62000;42.262;12.210;2022-07-25T13:04:58;9.88;;;5.05;;
73695;SDS011;62000;42.262;12.210;2022-07-25T13:09:51;9.27;;;4.85;;
73695;SDS011;62000;42.262;12.210;2022-07-25T13:12:17;9.57;;;4.85;;
73695;SDS011;62000;42.262;12.210;2022-07-25T13:14:44;10.30;;;4.70;;
73695;SDS011;62000;42.262;12.210;2022-07-25T13:19:36;12.15;;;5.22;;
73695;SDS011;62000;42.262;12.210;2022-07-25T13:24:30;10.93;;;4.97;;
73695;SDS011;62000;42.262;12.210;2022-07-25T13:26:58;7.97;;;4.93;;
73695;SDS011;62000;42.262;12.210;2022-07-25T13:29:28;10.15;;;4.95;;
73695;SDS011;62000;42.262;12.210;2022-07-25T13:31:54;9.27;;;5.03;;
73695;SDS011;62000;42.262;12.210;2022-07-25T13:34:21;21.02;;;5.32;;
73695;SDS011;62000;42.262;12.210;2022-07-25T13:36:47;10.90;;;5.05;;
73695;SDS011;62000;42.262;12.210;2022-07-25T13:39:14;8.60;;;4.82;;
73695;SDS011;62000;42.262;12.210;2022-07-25T13:41:40;12.95;;;4.70;;
73695;SDS011;62000;42.262;12.210;2022-07-25T13:46:33;30.20;;;6.10;;
73695;SDS011;62000;42.262;12.210;2022-07-25T13:48:59;13.40;;;4.70;;
73695;SDS011;62000;42.262;12.210;2022-07-25T13:51:25;9.18;;;4.35;;
73695;SDS011;62000;42.262;12.210;2022-07-25T13:53:52;10.55;;;4.78;;
73695;SDS011;62000;42.262;12.210;2022-07-25T13:58:44;11.25;;;5.05;;
73695;SDS011;62000;42.262;12.210;2022-07-25T14:01:10;8.48;;;4.25;;
73695;SDS011;62000;42.262;12.210;2022-07-25T14:03:36;7.93;;;4.70;;
73695;SDS011;62000;42.262;12.210;2022-07-25T14:06:03;9.35;;;4.43;;
73695;SDS011;62000;42.262;12.210;2022-07-25T14:08:30;8.68;;;4.70;;
73695;SDS011;62000;42.262;12.210;2022-07-25T14:10:56;8.15;;;4.75;;
73695;SDS011;62000;42.262;12.210;2022-07-25T15:24:06;9.43;;;4.10;;
73695;SDS011;62000;42.262;12.210;2022-07-25T15:26:32;10.63;;;4.57;;
73695;SDS011;62000;42.262;12.210;2022-07-25T15:28:59;12.75;;;5.05;;
73695;SDS011;62000;42.262;12.210;2022-07-25T15:31:25;10.63;;;4.60;;
73695;SDS011;62000;42.262;12.210;2022-07-25T15:33:51;9.52;;;5.20;;
73695;SDS011;62000;42.262;12.210;2022-07-25T15:38:44;9.27;;;4.45;;
73695;SDS011;62000;42.262;12.210;2022-07-25T15:41:11;7.35;;;4.30;;
73695;SDS011;62000;42.262;12.210;2022-07-25T15:46:04;8.25;;;4.60;;
73695;SDS011;62000;42.262;12.210;2022-07-25T15:48:30;9.15;;;4.88;;
73695;SDS011;62000;42.262;12.210;2022-07-25T15:50:57;12.32;;;4.20;;
73695;SDS011;62000;42.262;12.210;2022-07-25T15:53:24;14.00;;;5.28;;
73695;SDS011;62000;42.262;12.210;2022-07-25T15:55:52;9.30;;;4.65;;
73695;SDS011;62000;42.262;12.210;2022-07-25T15:58:18;10.80;;;4.55;;
73695;SDS011;62000;42.262;12.210;2022-07-25T16:00:45;9.27;;;4.78;;
73695;SDS011;62000;42.262;12.210;2022-07-25T16:03:11;11.32;;;4.38;;
73695;SDS011;62000;42.262;12.210;2022-07-25T16:08:05;7.80;;;3.95;;
73695;SDS011;62000;42.262;12.210;2022-07-25T16:10:35;7.80;;;4.40;;
73695;SDS011;62000;42.262;12.210;2022-07-25T16:13:02;8.55;;;4.70;;
73695;SDS011;62000;42.262;12.210;2022-07-25T16:15:29;8.05;;;4.65;;
73695;SDS011;62000;42.262;12.210;2022-07-25T16:17:55;9.65;;;4.80;;
73695;SDS011;62000;42.262;12.210;2022-07-25T16:20:22;10.07;;;4.63;;
73695;SDS011;62000;42.262;12.210;2022-07-25T16:22:49;8.73;;;4.40;;
73695;SDS011;62000;42.262;12.210;2022-07-25T16:25:20;8.82;;;3.90;;
73695;SDS011;62000;42.262;12.210;2022-07-25T16:27:47;8.73;;;4.72;;
73695;SDS011;62000;42.262;12.210;2022-07-25T16:30:14;7.70;;;4.03;;
73695;SDS011;62000;42.262;12.210;2022-07-25T16:32:41;11.02;;;4.40;;
73695;SDS011;62000;42.262;12.210;2022-07-25T16:35:07;8.35;;;4.15;;
73695;SDS011;62000;42.262;12.210;2022-07-25T16:37:34;8.07;;;4.85;;
73695;SDS011;62000;42.262;12.210;2022-07-25T16:42:27;10.30;;;4.65;;
73695;SDS011;62000;42.262;12.210;2022-07-25T16:47:20;9.93;;;3.83;;
73695;SDS011;62000;42.262;12.210;2022-07-25T16:52:12;11.07;;;4.70;;
73695;SDS011;62000;42.262;12.210;2022-07-25T16:54:38;9.90;;;3.88;;
73695;SDS011;62000;42.262;12.210;2022-07-25T16:57:05;7.82;;;3.90;;
73695;SDS011;62000;42.262;12.210;2022-07-25T17:01:57;7.38;;;4.07;;
73695;SDS011;62000;42.262;12.210;2022-07-25T17:06:50;7.72;;;4.03;;
73695;SDS011;62000;42.262;12.210;2022-07-25T17:09:16;8.18;;;4.28;;
73695;SDS011;62000;42.262;12.210;2022-07-25T17:14:08;8.18;;;4.00;;
73695;SDS011;62000;42.262;12.210;2022-07-25T17:16:35;9.35;;;4.15;;
73695;SDS011;62000;42.262;12.210;2022-07-25T17:21:28;11.85;;;3.80;;
73695;SDS011;62000;42.262;12.210;2022-07-25T17:23:54;11.48;;;3.55;;
73695;SDS011;62000;42.262;12.210;2022-07-25T18:17:42;9.00;;;4.03;;
73695;SDS011;62000;42.262;12.210;2022-07-25T18:20:10;9.45;;;4.40;;
73695;SDS011;62000;42.262;12.210;2022-07-25T18:22:38;10.02;;;4.30;;
73695;SDS011;62000;42.262;12.210;2022-07-25T18:25:09;9.27;;;4.57;;
73695;SDS011;62000;42.262;12.210;2022-07-25T18:27:40;8.18;;;4.50;;
73695;SDS011;62000;42.262;12.210;2022-07-25T18:30:08;7.72;;;4.00;;
73695;SDS011;62000;42.262;12.210;2022-07-25T18:32:36;11.88;;;4.35;;
73695;SDS011;62000;42.262;12.210;2022-07-25T18:35:03;9.02;;;4.32;;
73695;SDS011;62000;42.262;12.210;2022-07-25T18:37:32;8.85;;;4.63;;
73695;SDS011;62000;42.262;12.210;2022-07-25T18:39:58;11.43;;;4.35;;
73695;SDS011;62000;42.262;12.210;2022-07-25T18:42:27;9.13;;;4.38;;
73695;SDS011;62000;42.262;12.210;2022-07-25T18:44:55;10.30;;;4.40;;
73695;SDS011;62000;42.262;12.210;2022-07-25T18:47:21;10.02;;;4.32;;
73695;SDS011;62000;42.262;12.210;2022-07-25T18:49:49;9.48;;;3.63;;
73695;SDS011;62000;42.262;12.210;2022-07-25T18:52:35;9.45;;;4.63;;
73695;SDS011;62000;42.262;12.210;2022-07-25T18:55:02;10.43;;;4.53;;
73695;SDS011;62000;42.262;12.210;2022-07-25T18:57:31;11.23;;;4.53;;
73695;SDS011;62000;42.262;12.210;2022-07-25T18:59:57;9.45;;;4.72;;
73695;SDS011;62000;42.262;12.210;2022-07-25T19:02:23;9.07;;;4.03;;
73695;SDS011;62000;42.262;12.210;2022-07-25T19:07:16;9.30;;;4.28;;
73695;SDS011;62000;42.262;12.210;2022-07-25T19:09:43;10.02;;;3.55;;
73695;SDS011;62000;42.262;12.210;2022-07-25T19:12:09;9.63;;;4.13;;
73695;SDS011;62000;42.262;12.210;2022-07-25T19:14:35;7.25;;;3.85;;
73695;SDS011;62000;42.262;12.210;2022-07-25T19:17:01;10.30;;;4.50;;
73695;SDS011;62000;42.262;12.210;2022-07-25T19:19:28;7.65;;;3.90;;
73695;SDS011;62000;42.262;12.210;2022-07-25T19:21:55;8.85;;;4.65;;
73695;SDS011;62000;42.262;12.210;2022-07-25T19:24:22;8.80;;;4.13;;
73695;SDS011;62000;42.262;12.210;2022-07-25T19:26:48;7.95;;;3.83;;
73695;SDS011;62000;42.262;12.210;2022-07-25T19:29:15;10.85;;;4.15;;
73695;SDS011;62000;42.262;12.210;2022-07-25T19:31:42;9.88;;;4.07;;
73695;SDS011;62000;42.262;12.210;2022-07-25T19:36:34;9.07;;;4.43;;
73695;SDS011;62000;42.262;12.210;2022-07-25T19:39:00;8.88;;;4.43;;
73695;SDS011;62000;42.262;12.210;2022-07-25T19:41:26;10.40;;;4.43;;
73695;SDS011;62000;42.262;12.210;2022-07-25T19:43:54;9.93;;;4.05;;
73695;SDS011;62000;42.262;12.210;2022-07-25T19:46:21;13.10;;;5.18;;
73695;SDS011;62000;42.262;12.210;2022-07-25T19:48:48;10.50;;;4.60;;
73695;SDS011;62000;42.262;12.210;2022-07-25T19:51:16;10.40;;;4.93;;
73695;SDS011;62000;42.262;12.210;2022-07-25T19:53:42;7.90;;;4.65;;
73695;SDS011;62000;42.262;12.210;2022-07-25T19:56:08;7.90;;;4.13;;
73695;SDS011;62000;42.262;12.210;2022-07-25T19:58:34;9.95;;;4.60;;
73695;SDS011;62000;42.262;12.210;2022-07-25T20:01:00;10.35;;;4.50;;
73695;SDS011;62000;42.262;12.210;2022-07-25T20:03:26;11.65;;;5.20;;
73695;SDS011;62000;42.262;12.210;2022-07-25T20:05:53;10.88;;;5.38;;
73695;SDS011;62000;42.262;12.210;2022-07-25T20:08:19;11.75;;;5.10;;
73695;SDS011;62000;42.262;12.210;2022-07-25T20:10:44;9.45;;;4.90;;
73695;SDS011;62000;42.262;12.210;2022-07-25T20:13:12;11.27;;;5.50;;
73695;SDS011;62000;42.262;12.210;2022-07-25T20:15:38;9.90;;;4.88;;
73695;SDS011;62000;42.262;12.210;2022-07-25T20:18:05;10.23;;;4.97;;
73695;SDS011;62000;42.262;12.210;2022-07-25T20:20:31;9.82;;;5.20;;
73695;SDS011;62000;42.262;12.210;2022-07-25T20:22:57;12.70;;;5.00;;
73695;SDS011;62000;42.262;12.210;2022-07-25T20:25:23;8.13;;;4.80;;
73695;SDS011;62000;42.262;12.210;2022-07-25T20:27:49;11.77;;;4.72;;
73695;SDS011;62000;42.262;12.210;2022-07-25T20:30:15;9.88;;;4.60;;
73695;SDS011;62000;42.262;12.210;2022-07-25T20:32:43;9.88;;;4.32;;
73695;SDS011;62000;42.262;12.210;2022-07-25T20:35:09;7.55;;;4.40;;
73695;SDS011;62000;42.262;12.210;2022-07-25T20:37:35;8.25;;;4.65;;
73695;SDS011;62000;42.262;12.210;2022-07-25T20:40:04;9.52;;;4.82;;
73695;SDS011;62000;42.262;12.210;2022-07-25T20:42:31;8.45;;;4.72;;
73695;SDS011;62000;42.262;12.210;2022-07-25T20:44:57;9.10;;;4.38;;
73695;SDS011;62000;42.262;12.210;2022-07-25T20:47:23;10.35;;;4.55;;
73695;SDS011;62000;42.262;12.210;2022-07-25T20:49:49;9.32;;;4.25;;
73695;SDS011;62000;42.262;12.210;2022-07-25T20:52:15;8.85;;;4.60;;
73695;SDS011;62000;42.262;12.210;2022-07-25T20:54:41;10.55;;;4.85;;
73695;SDS011;62000;42.262;12.210;2022-07-25T20:57:07;8.43;;;4.28;;
73695;SDS011;62000;42.262;12.210;2022-07-25T20:59:35;7.65;;;4.20;;
73695;SDS011;62000;42.262;12.210;2022-07-25T21:02:01;7.50;;;3.38;;
73695;SDS011;62000;42.262;12.210;2022-07-25T21:04:27;7.82;;;4.00;;
73695;SDS011;62000;42.262;12.210;2022-07-25T21:06:53;7.63;;;4.00;;
73695;SDS011;62000;42.262;12.210;2022-07-25T21:09:19;6.47;;;4.07;;
73695;SDS011;62000;42.262;12.210;2022-07-25T21:11:45;7.00;;;4.28;;
73695;SDS011;62000;42.262;12.210;2022-07-25T21:14:11;8.38;;;3.92;;
73695;SDS011;62000;42.262;12.210;2022-07-25T21:16:37;8.38;;;4.78;;
73695;SDS011;62000;42.262;12.210;2022-07-25T21:19:03;8.95;;;4.28;;
73695;SDS011;62000;42.262;12.210;2022-07-25T21:21:29;9.68;;;4.75;;
73695;SDS011;62000;42.262;12.210;2022-07-25T21:23:55;11.98;;;5.20;;
73695;SDS011;62000;42.262;12.210;2022-07-25T21:26:21;7.30;;;4.63;;
73695;SDS011;62000;42.262;12.210;2022-07-25T21:28:47;11.23;;;4.72;;
73695;SDS011;62000;42.262;12.210;2022-07-25T21:31:13;9.35;;;4.75;;
73695;SDS011;62000;42.262;12.210;2022-07-25T21:33:41;8.20;;;4.40;;
73695;SDS011;62000;42.262;12.210;2022-07-25T21:36:07;12.65;;;5.32;;
73695;SDS011;62000;42.262;12.210;2022-07-25T21:38:33;10.30;;;4.43;;
73695;SDS011;62000;42.262;12.210;2022-07-25T21:41:01;9.60;;;4.70;;
73695;SDS011;62000;42.262;12.210;2022-07-25T21:43:27;9.90;;;4.57;;
73695;SDS011;62000;42.262;12.210;2022-07-25T21:45:53;10.55;;;5.03;;
73695;SDS011;62000;42.262;12.210;2022-07-25T21:48:19;8.82;;;4.65;;
73695;SDS011;62000;42.262;12.210;2022-07-25T21:53:30;10.27;;;4.70;;
73695;SDS011;62000;42.262;12.210;2022-07-25T21:55:56;9.20;;;4.40;;
73695;SDS011;62000;42.262;12.210;2022-07-25T21:58:22;9.30;;;4.30;;
73695;SDS011;62000;42.262;12.210;2022-07-25T22:00:48;10.77;;;5.03;;
73695;SDS011;62000;42.262;12.210;2022-07-25T22:03:14;9.10;;;4.53;;
73695;SDS011;62000;42.262;12.210;2022-07-25T22:05:40;8.05;;;4.70;;
73695;SDS011;62000;42.262;12.210;2022-07-25T22:08:06;11.18;;;5.60;;
73695;SDS011;62000;42.262;12.210;2022-07-25T22:10:32;8.23;;;4.95;;
73695;SDS011;62000;42.262;12.210;2022-07-25T22:12:58;9.10;;;4.90;;
73695;SDS011;62000;42.262;12.210;2022-07-25T22:15:24;9.30;;;5.25;;
73695;SDS011;62000;42.262;12.210;2022-07-25T22:17:51;10.77;;;5.07;;
73695;SDS011;62000;42.262;12.210;2022-07-25T22:20:18;10.00;;;4.82;;
73695;SDS011;62000;42.262;12.210;2022-07-25T22:22:45;7.82;;;4.60;;
73695;SDS011;62000;42.262;12.210;2022-07-25T22:25:12;7.15;;;4.47;;
73695;SDS011;62000;42.262;12.210;2022-07-25T22:27:39;11.68;;;5.25;;
73695;SDS011;62000;42.262;12.210;2022-07-25T22:30:05;10.93;;;5.13;;
73695;SDS011;62000;42.262;12.210;2022-07-25T22:32:34;9.60;;;5.25;;
73695;SDS011;62000;42.262;12.210;2022-07-25T22:35:00;9.80;;;5.47;;
73695;SDS011;62000;42.262;12.210;2022-07-25T22:37:25;11.23;;;5.47;;
73695;SDS011;62000;42.262;12.210;2022-07-25T22:39:51;8.93;;;5.43;;
73695;SDS011;62000;42.262;12.210;2022-07-25T22:42:17;12.27;;;6.07;;
73695;SDS011;62000;42.262;12.210;2022-07-25T22:44:43;10.20;;;5.55;;
73695;SDS011;62000;42.262;12.210;2022-07-25T22:47:09;11.98;;;5.85;;
73695;SDS011;62000;42.262;12.210;2022-07-25T22:49:35;8.48;;;4.57;;
73695;SDS011;62000;42.262;12.210;2022-07-25T22:54:29;10.02;;;5.20;;
73695;SDS011;62000;42.262;12.210;2022-07-25T22:56:55;10.07;;;5.68;;
73695;SDS011;62000;42.262;12.210;2022-07-25T22:59:21;9.48;;;5.65;;
73695;SDS011;62000;42.262;12.210;2022-07-25T23:01:47;9.10;;;6.07;;
73695;SDS011;62000;42.262;12.210;2022-07-25T23:04:13;10.15;;;5.88;;
73695;SDS011;62000;42.262;12.210;2022-07-25T23:06:39;8.95;;;6.05;;
73695;SDS011;62000;42.262;12.210;2022-07-25T23:09:06;10.57;;;5.72;;
73695;SDS011;62000;42.262;12.210;2022-07-25T23:11:33;9.50;;;5.30;;
73695;SDS011;62000;42.262;12.210;2022-07-25T23:13:59;9.57;;;5.43;;
73695;SDS011;62000;42.262;12.210;2022-07-25T23:16:26;10.43;;;5.35;;
73695;SDS011;62000;42.262;12.210;2022-07-25T23:18:55;8.68;;;5.57;;
73695;SDS011;62000;42.262;12.210;2022-07-25T23:21:22;10.82;;;5.65;;
73695;SDS011;62000;42.262;12.210;2022-07-25T23:23:49;8.02;;;5.20;;
73695;SDS011;62000;42.262;12.210;2022-07-25T23:26:16;9.73;;;5.45;;
73695;SDS011;62000;42.262;12.210;2022-07-25T23:28:42;10.18;;;6.22;;
73695;SDS011;62000;42.262;12.210;2022-07-25T23:31:08;9.48;;;5.70;;
73695;SDS011;62000;42.262;12.210;2022-07-25T23:33:34;9.35;;;5.50;;
73695;SDS011;62000;42.262;12.210;2022-07-25T23:36:00;8.75;;;4.60;;
73695;SDS011;62000;42.262;12.210;2022-07-25T23:38:26;12.45;;;4.68;;
73695;SDS011;62000;42.262;12.210;2022-07-25T23:40:53;7.95;;;4.47;;
73695;SDS011;62000;42.262;12.210;2022-07-25T23:43:18;11.23;;;5.00;;
73695;SDS011;62000;42.262;12.210;2022-07-25T23:45:45;9.05;;;4.95;;
73695;SDS011;62000;42.262;12.210;2022-07-25T23:48:11;11.13;;;5.40;;
73695;SDS011;62000;42.262;12.210;2022-07-25T23:50:37;9.90;;;5.28;;
73695;SDS011;62000;42.262;12.210;2022-07-25T23:53:02;11.73;;;4.85;;
73695;SDS011;62000;42.262;12.210;2022-07-25T23:55:29;10.57;;;4.72;;
73695;SDS011;62000;42.262;12.210;2022-07-25T23:57:55;9.20;;;4.70;;
